sensor_id;sensor_type;location;lat;lon;timestamp;P1;durP1;ratioP1;P2;durP2;ratioP2
19599;SDS011;9947;57.722;12.012;2023-01-29T00:01:11;22.47;;;4.43;;
19599;SDS011;9947;57.722;12.012;2023-01-29T00:03:38;35.30;;;5.13;;
19599;SDS011;9947;57.722;12.012;2023-01-29T00:06:11;27.57;;;4.93;;
19599;SDS011;9947;57.722;12.012;2023-01-29T00:08:38;27.67;;;5.20;;
19599;SDS011;9947;57.722;12.012;2023-01-29T00:11:12;26.27;;;4.60;;
19599;SDS011;9947;57.722;12.012;2023-01-29T00:13:42;40.13;;;5.20;;
19599;SDS011;9947;57.722;12.012;2023-01-29T00:16:17;35.47;;;4.80;;
19599;SDS011;9947;57.722;12.012;2023-01-29T00:18:44;37.23;;;5.20;;
19599;SDS011;9947;57.722;12.012;2023-01-29T00:21:18;34.23;;;5.37;;
19599;SDS011;9947;57.722;12.012;2023-01-29T00:23:46;31.17;;;5.13;;
19599;SDS011;9947;57.722;12.012;2023-01-29T00:26:20;30.17;;;4.93;;
19599;SDS011;9947;57.722;12.012;2023-01-29T00:28:55;29.73;;;4.13;;
19599;SDS011;9947;57.722;12.012;2023-01-29T00:31:30;43.40;;;6.13;;
19599;SDS011;9947;57.722;12.012;2023-01-29T00:33:57;28.80;;;4.90;;
19599;SDS011;9947;57.722;12.012;2023-01-29T00:36:37;40.87;;;4.77;;
19599;SDS011;9947;57.722;12.012;2023-01-29T00:39:17;37.77;;;5.17;;
19599;SDS011;9947;57.722;12.012;2023-01-29T00:41:48;27.93;;;4.63;;
19599;SDS011;9947;57.722;12.012;2023-01-29T00:44:39;30.17;;;5.90;;
19599;SDS011;9947;57.722;12.012;2023-01-29T00:47:26;35.10;;;4.53;;
19599;SDS011;9947;57.722;12.012;2023-01-29T00:49:57;33.10;;;5.20;;
19599;SDS011;9947;57.722;12.012;2023-01-29T00:52:31;29.00;;;4.70;;
19599;SDS011;9947;57.722;12.012;2023-01-29T00:55:05;40.23;;;4.57;;
19599;SDS011;9947;57.722;12.012;2023-01-29T00:57:34;34.77;;;4.77;;
19599;SDS011;9947;57.722;12.012;2023-01-29T01:00:10;28.67;;;5.37;;
19599;SDS011;9947;57.722;12.012;2023-01-29T01:02:48;27.13;;;4.53;;
19599;SDS011;9947;57.722;12.012;2023-01-29T01:05:33;29.17;;;4.83;;
19599;SDS011;9947;57.722;12.012;2023-01-29T01:08:00;36.20;;;6.53;;
19599;SDS011;9947;57.722;12.012;2023-01-29T01:10:48;39.03;;;5.20;;
19599;SDS011;9947;57.722;12.012;2023-01-29T01:13:31;32.43;;;4.77;;
19599;SDS011;9947;57.722;12.012;2023-01-29T01:15:59;47.93;;;5.00;;
19599;SDS011;9947;57.722;12.012;2023-01-29T01:18:34;34.47;;;5.00;;
19599;SDS011;9947;57.722;12.012;2023-01-29T01:21:16;30.60;;;5.13;;
19599;SDS011;9947;57.722;12.012;2023-01-29T01:23:56;29.33;;;4.43;;
19599;SDS011;9947;57.722;12.012;2023-01-29T01:26:23;35.47;;;5.73;;
19599;SDS011;9947;57.722;12.012;2023-01-29T01:28:56;35.40;;;5.83;;
19599;SDS011;9947;57.722;12.012;2023-01-29T01:31:23;35.77;;;4.80;;
19599;SDS011;9947;57.722;12.012;2023-01-29T01:33:59;22.93;;;3.93;;
19599;SDS011;9947;57.722;12.012;2023-01-29T01:36:32;44.87;;;5.73;;
19599;SDS011;9947;57.722;12.012;2023-01-29T01:39:05;33.13;;;5.43;;
19599;SDS011;9947;57.722;12.012;2023-01-29T01:41:32;37.00;;;4.93;;
19599;SDS011;9947;57.722;12.012;2023-01-29T01:47:19;32.70;;;4.83;;
19599;SDS011;9947;57.722;12.012;2023-01-29T01:49:59;27.73;;;4.27;;
19599;SDS011;9947;57.722;12.012;2023-01-29T01:52:37;27.63;;;5.30;;
19599;SDS011;9947;57.722;12.012;2023-01-29T01:55:15;31.23;;;4.97;;
19599;SDS011;9947;57.722;12.012;2023-01-29T01:57:52;22.20;;;4.60;;
19599;SDS011;9947;57.722;12.012;2023-01-29T02:00:23;40.40;;;5.67;;
19599;SDS011;9947;57.722;12.012;2023-01-29T02:03:01;29.30;;;5.00;;
19599;SDS011;9947;57.722;12.012;2023-01-29T02:05:53;29.53;;;4.60;;
19599;SDS011;9947;57.722;12.012;2023-01-29T02:08:49;27.33;;;4.83;;
19599;SDS011;9947;57.722;12.012;2023-01-29T02:11:45;28.77;;;4.83;;
19599;SDS011;9947;57.722;12.012;2023-01-29T02:14:12;33.47;;;4.60;;
19599;SDS011;9947;57.722;12.012;2023-01-29T02:16:46;43.87;;;4.80;;
19599;SDS011;9947;57.722;12.012;2023-01-29T02:19:14;31.23;;;4.77;;
19599;SDS011;9947;57.722;12.012;2023-01-29T02:22:05;34.10;;;5.00;;
19599;SDS011;9947;57.722;12.012;2023-01-29T02:30:46;35.60;;;5.17;;
19599;SDS011;9947;57.722;12.012;2023-01-29T02:33:28;26.60;;;5.47;;
19599;SDS011;9947;57.722;12.012;2023-01-29T02:36:13;31.27;;;4.63;;
19599;SDS011;9947;57.722;12.012;2023-01-29T02:38:54;32.20;;;5.67;;
19599;SDS011;9947;57.722;12.012;2023-01-29T02:41:33;33.27;;;5.07;;
19599;SDS011;9947;57.722;12.012;2023-01-29T02:44:18;39.23;;;5.63;;
19599;SDS011;9947;57.722;12.012;2023-01-29T02:46:51;29.43;;;4.63;;
19599;SDS011;9947;57.722;12.012;2023-01-29T02:49:33;27.97;;;5.17;;
19599;SDS011;9947;57.722;12.012;2023-01-29T02:52:04;38.50;;;5.50;;
19599;SDS011;9947;57.722;12.012;2023-01-29T02:54:53;37.83;;;5.17;;
19599;SDS011;9947;57.722;12.012;2023-01-29T02:57:29;36.57;;;4.47;;
19599;SDS011;9947;57.722;12.012;2023-01-29T03:00:09;29.60;;;4.83;;
19599;SDS011;9947;57.722;12.012;2023-01-29T03:02:47;38.00;;;6.17;;
19599;SDS011;9947;57.722;12.012;2023-01-29T03:05:24;32.13;;;5.03;;
19599;SDS011;9947;57.722;12.012;2023-01-29T03:08:03;29.83;;;4.83;;
19599;SDS011;9947;57.722;12.012;2023-01-29T03:10:43;38.13;;;4.83;;
19599;SDS011;9947;57.722;12.012;2023-01-29T03:13:24;34.30;;;4.80;;
19599;SDS011;9947;57.722;12.012;2023-01-29T03:16:05;32.60;;;4.83;;
19599;SDS011;9947;57.722;12.012;2023-01-29T03:18:46;24.53;;;4.97;;
19599;SDS011;9947;57.722;12.012;2023-01-29T03:21:24;28.70;;;4.67;;
19599;SDS011;9947;57.722;12.012;2023-01-29T03:24:14;29.90;;;4.60;;
19599;SDS011;9947;57.722;12.012;2023-01-29T03:27:08;26.80;;;4.67;;
19599;SDS011;9947;57.722;12.012;2023-01-29T03:29:57;28.90;;;4.67;;
19599;SDS011;9947;57.722;12.012;2023-01-29T03:32:51;33.87;;;5.13;;
19599;SDS011;9947;57.722;12.012;2023-01-29T03:35:27;24.00;;;4.40;;
19599;SDS011;9947;57.722;12.012;2023-01-29T03:38:06;25.63;;;4.17;;
19599;SDS011;9947;57.722;12.012;2023-01-29T03:40:36;42.20;;;4.77;;
19599;SDS011;9947;57.722;12.012;2023-01-29T03:43:15;28.83;;;4.63;;
19599;SDS011;9947;57.722;12.012;2023-01-29T03:45:57;32.13;;;5.60;;
19599;SDS011;9947;57.722;12.012;2023-01-29T03:48:31;23.20;;;4.07;;
19599;SDS011;9947;57.722;12.012;2023-01-29T03:51:15;21.27;;;5.03;;
19599;SDS011;9947;57.722;12.012;2023-01-29T03:53:51;34.53;;;5.10;;
19599;SDS011;9947;57.722;12.012;2023-01-29T03:56:33;38.67;;;4.80;;
19599;SDS011;9947;57.722;12.012;2023-01-29T03:59:10;33.00;;;4.07;;
19599;SDS011;9947;57.722;12.012;2023-01-29T04:01:52;35.50;;;4.73;;
19599;SDS011;9947;57.722;12.012;2023-01-29T04:04:29;27.17;;;4.37;;
19599;SDS011;9947;57.722;12.012;2023-01-29T04:07:00;32.53;;;4.47;;
19599;SDS011;9947;57.722;12.012;2023-01-29T04:09:39;37.67;;;4.70;;
19599;SDS011;9947;57.722;12.012;2023-01-29T04:12:17;39.07;;;4.63;;
19599;SDS011;9947;57.722;12.012;2023-01-29T04:14:56;32.50;;;4.40;;
19599;SDS011;9947;57.722;12.012;2023-01-29T04:17:36;31.53;;;5.00;;
19599;SDS011;9947;57.722;12.012;2023-01-29T04:20:13;24.83;;;4.03;;
19599;SDS011;9947;57.722;12.012;2023-01-29T04:22:47;30.13;;;5.13;;
19599;SDS011;9947;57.722;12.012;2023-01-29T04:25:23;28.17;;;4.83;;
19599;SDS011;9947;57.722;12.012;2023-01-29T04:27:56;26.33;;;4.00;;
19599;SDS011;9947;57.722;12.012;2023-01-29T04:30:38;30.73;;;4.80;;
19599;SDS011;9947;57.722;12.012;2023-01-29T04:33:18;37.63;;;4.83;;
19599;SDS011;9947;57.722;12.012;2023-01-29T04:36:12;29.13;;;4.27;;
19599;SDS011;9947;57.722;12.012;2023-01-29T04:38:56;28.40;;;4.47;;
19599;SDS011;9947;57.722;12.012;2023-01-29T04:41:30;24.33;;;4.00;;
19599;SDS011;9947;57.722;12.012;2023-01-29T04:44:09;29.67;;;4.47;;
19599;SDS011;9947;57.722;12.012;2023-01-29T04:47:00;24.23;;;4.70;;
19599;SDS011;9947;57.722;12.012;2023-01-29T04:49:34;32.10;;;4.53;;
19599;SDS011;9947;57.722;12.012;2023-01-29T04:52:20;24.73;;;4.83;;
19599;SDS011;9947;57.722;12.012;2023-01-29T04:54:58;29.40;;;4.30;;
19599;SDS011;9947;57.722;12.012;2023-01-29T04:57:39;22.87;;;4.03;;
19599;SDS011;9947;57.722;12.012;2023-01-29T05:00:19;23.67;;;4.20;;
19599;SDS011;9947;57.722;12.012;2023-01-29T05:02:56;23.53;;;3.67;;
19599;SDS011;9947;57.722;12.012;2023-01-29T05:05:33;20.70;;;4.10;;
19599;SDS011;9947;57.722;12.012;2023-01-29T05:08:09;27.10;;;4.43;;
19599;SDS011;9947;57.722;12.012;2023-01-29T05:10:39;25.70;;;3.90;;
19599;SDS011;9947;57.722;12.012;2023-01-29T05:13:13;35.57;;;4.97;;
19599;SDS011;9947;57.722;12.012;2023-01-29T05:15:55;29.43;;;4.30;;
19599;SDS011;9947;57.722;12.012;2023-01-29T05:18:27;21.17;;;4.17;;
19599;SDS011;9947;57.722;12.012;2023-01-29T05:21:02;37.63;;;5.20;;
19599;SDS011;9947;57.722;12.012;2023-01-29T05:23:40;36.73;;;4.73;;
19599;SDS011;9947;57.722;12.012;2023-01-29T05:26:22;25.90;;;4.30;;
19599;SDS011;9947;57.722;12.012;2023-01-29T05:29:06;22.30;;;5.00;;
19599;SDS011;9947;57.722;12.012;2023-01-29T05:31:41;31.97;;;4.47;;
19599;SDS011;9947;57.722;12.012;2023-01-29T05:34:09;34.23;;;4.67;;
19599;SDS011;9947;57.722;12.012;2023-01-29T05:36:42;33.53;;;4.60;;
19599;SDS011;9947;57.722;12.012;2023-01-29T05:39:11;34.97;;;4.47;;
19599;SDS011;9947;57.722;12.012;2023-01-29T05:41:44;30.87;;;5.50;;
19599;SDS011;9947;57.722;12.012;2023-01-29T05:44:17;26.00;;;4.43;;
19599;SDS011;9947;57.722;12.012;2023-01-29T05:46:44;32.57;;;4.70;;
19599;SDS011;9947;57.722;12.012;2023-01-29T05:49:19;28.20;;;4.53;;
19599;SDS011;9947;57.722;12.012;2023-01-29T05:51:46;35.13;;;5.20;;
19599;SDS011;9947;57.722;12.012;2023-01-29T05:54:21;26.87;;;4.30;;
19599;SDS011;9947;57.722;12.012;2023-01-29T05:56:47;28.07;;;4.63;;
19599;SDS011;9947;57.722;12.012;2023-01-29T05:59:21;31.90;;;5.13;;
19599;SDS011;9947;57.722;12.012;2023-01-29T06:01:55;38.00;;;4.57;;
19599;SDS011;9947;57.722;12.012;2023-01-29T06:04:28;22.70;;;5.03;;
19599;SDS011;9947;57.722;12.012;2023-01-29T06:06:55;28.13;;;5.10;;
19599;SDS011;9947;57.722;12.012;2023-01-29T06:09:30;24.73;;;3.73;;
19599;SDS011;9947;57.722;12.012;2023-01-29T06:12:10;26.30;;;4.17;;
19599;SDS011;9947;57.722;12.012;2023-01-29T06:14:43;28.17;;;4.10;;
19599;SDS011;9947;57.722;12.012;2023-01-29T06:17:10;31.63;;;5.27;;
19599;SDS011;9947;57.722;12.012;2023-01-29T06:19:43;40.90;;;4.50;;
19599;SDS011;9947;57.722;12.012;2023-01-29T06:22:10;29.87;;;4.30;;
19599;SDS011;9947;57.722;12.012;2023-01-29T06:24:45;32.97;;;4.50;;
19599;SDS011;9947;57.722;12.012;2023-01-29T06:27:18;31.07;;;4.57;;
19599;SDS011;9947;57.722;12.012;2023-01-29T06:29:51;18.93;;;3.70;;
19599;SDS011;9947;57.722;12.012;2023-01-29T06:32:24;28.03;;;3.73;;
19599;SDS011;9947;57.722;12.012;2023-01-29T06:34:52;28.70;;;4.20;;
19599;SDS011;9947;57.722;12.012;2023-01-29T06:37:35;23.23;;;4.83;;
19599;SDS011;9947;57.722;12.012;2023-01-29T06:40:04;26.43;;;4.60;;
19599;SDS011;9947;57.722;12.012;2023-01-29T06:42:38;32.07;;;4.37;;
19599;SDS011;9947;57.722;12.012;2023-01-29T06:45:11;27.90;;;4.03;;
19599;SDS011;9947;57.722;12.012;2023-01-29T06:47:39;30.63;;;4.50;;
19599;SDS011;9947;57.722;12.012;2023-01-29T06:50:12;20.30;;;3.47;;
19599;SDS011;9947;57.722;12.012;2023-01-29T06:52:39;24.30;;;4.30;;
19599;SDS011;9947;57.722;12.012;2023-01-29T06:55:08;15.50;;;3.60;;
19599;SDS011;9947;57.722;12.012;2023-01-29T06:57:41;28.27;;;4.00;;
19599;SDS011;9947;57.722;12.012;2023-01-29T07:00:14;23.20;;;3.80;;
19599;SDS011;9947;57.722;12.012;2023-01-29T07:02:48;32.43;;;4.23;;
19599;SDS011;9947;57.722;12.012;2023-01-29T07:05:22;26.20;;;3.93;;
19599;SDS011;9947;57.722;12.012;2023-01-29T07:07:49;25.93;;;4.13;;
19599;SDS011;9947;57.722;12.012;2023-01-29T07:10:24;23.77;;;3.90;;
19599;SDS011;9947;57.722;12.012;2023-01-29T07:12:51;29.47;;;4.23;;
19599;SDS011;9947;57.722;12.012;2023-01-29T07:15:25;26.33;;;4.13;;
19599;SDS011;9947;57.722;12.012;2023-01-29T07:17:55;24.40;;;3.67;;
19599;SDS011;9947;57.722;12.012;2023-01-29T07:20:36;20.90;;;3.67;;
19599;SDS011;9947;57.722;12.012;2023-01-29T07:23:10;19.93;;;4.57;;
19599;SDS011;9947;57.722;12.012;2023-01-29T07:25:47;19.43;;;3.87;;
19599;SDS011;9947;57.722;12.012;2023-01-29T07:28:14;23.50;;;4.20;;
19599;SDS011;9947;57.722;12.012;2023-01-29T07:30:47;26.00;;;3.67;;
19599;SDS011;9947;57.722;12.012;2023-01-29T07:33:22;22.10;;;3.47;;
19599;SDS011;9947;57.722;12.012;2023-01-29T07:35:55;26.27;;;3.70;;
19599;SDS011;9947;57.722;12.012;2023-01-29T07:38:22;26.23;;;3.50;;
19599;SDS011;9947;57.722;12.012;2023-01-29T07:40:57;25.80;;;4.57;;
19599;SDS011;9947;57.722;12.012;2023-01-29T07:43:30;20.40;;;4.00;;
19599;SDS011;9947;57.722;12.012;2023-01-29T07:46:04;24.73;;;3.73;;
19599;SDS011;9947;57.722;12.012;2023-01-29T07:48:31;31.70;;;4.00;;
19599;SDS011;9947;57.722;12.012;2023-01-29T07:51:04;15.53;;;3.20;;
19599;SDS011;9947;57.722;12.012;2023-01-29T07:53:38;23.23;;;3.80;;
19599;SDS011;9947;57.722;12.012;2023-01-29T07:56:13;28.23;;;3.60;;
19599;SDS011;9947;57.722;12.012;2023-01-29T07:58:40;24.90;;;4.13;;
19599;SDS011;9947;57.722;12.012;2023-01-29T08:01:13;24.37;;;4.60;;
19599;SDS011;9947;57.722;12.012;2023-01-29T08:03:46;18.07;;;4.20;;
19599;SDS011;9947;57.722;12.012;2023-01-29T08:06:20;26.93;;;3.83;;
19599;SDS011;9947;57.722;12.012;2023-01-29T08:08:53;18.87;;;3.10;;
19599;SDS011;9947;57.722;12.012;2023-01-29T08:11:28;19.93;;;4.37;;
19599;SDS011;9947;57.722;12.012;2023-01-29T08:13:55;15.73;;;3.33;;
19599;SDS011;9947;57.722;12.012;2023-01-29T08:16:28;16.33;;;3.00;;
19599;SDS011;9947;57.722;12.012;2023-01-29T08:19:01;20.50;;;3.63;;
19599;SDS011;9947;57.722;12.012;2023-01-29T08:21:34;14.87;;;3.13;;
19599;SDS011;9947;57.722;12.012;2023-01-29T08:24:07;21.53;;;3.53;;
19599;SDS011;9947;57.722;12.012;2023-01-29T08:26:35;21.67;;;3.23;;
19599;SDS011;9947;57.722;12.012;2023-01-29T08:29:10;18.13;;;3.03;;
19599;SDS011;9947;57.722;12.012;2023-01-29T08:31:43;22.43;;;3.80;;
19599;SDS011;9947;57.722;12.012;2023-01-29T08:34:16;21.97;;;3.27;;
19599;SDS011;9947;57.722;12.012;2023-01-29T08:36:50;23.67;;;3.40;;
19599;SDS011;9947;57.722;12.012;2023-01-29T08:39:23;21.23;;;3.50;;
19599;SDS011;9947;57.722;12.012;2023-01-29T08:41:54;13.03;;;3.30;;
19599;SDS011;9947;57.722;12.012;2023-01-29T08:44:27;20.00;;;3.67;;
19599;SDS011;9947;57.722;12.012;2023-01-29T08:47:01;19.23;;;3.23;;
19599;SDS011;9947;57.722;12.012;2023-01-29T08:49:35;15.70;;;3.60;;
19599;SDS011;9947;57.722;12.012;2023-01-29T08:52:08;22.73;;;3.27;;
19599;SDS011;9947;57.722;12.012;2023-01-29T08:54:35;17.13;;;3.43;;
19599;SDS011;9947;57.722;12.012;2023-01-29T08:57:10;19.47;;;3.40;;
19599;SDS011;9947;57.722;12.012;2023-01-29T08:59:37;23.10;;;3.50;;
19599;SDS011;9947;57.722;12.012;2023-01-29T09:02:10;18.87;;;3.23;;
19599;SDS011;9947;57.722;12.012;2023-01-29T09:04:40;21.23;;;4.27;;
19599;SDS011;9947;57.722;12.012;2023-01-29T09:07:14;18.13;;;3.30;;
19599;SDS011;9947;57.722;12.012;2023-01-29T09:09:48;15.40;;;3.57;;
19599;SDS011;9947;57.722;12.012;2023-01-29T09:12:16;20.60;;;3.23;;
19599;SDS011;9947;57.722;12.012;2023-01-29T09:14:49;20.57;;;3.30;;
19599;SDS011;9947;57.722;12.012;2023-01-29T09:17:29;17.33;;;3.50;;
19599;SDS011;9947;57.722;12.012;2023-01-29T09:19:56;24.30;;;4.53;;
19599;SDS011;9947;57.722;12.012;2023-01-29T09:22:30;20.33;;;3.00;;
19599;SDS011;9947;57.722;12.012;2023-01-29T09:25:04;22.70;;;3.90;;
19599;SDS011;9947;57.722;12.012;2023-01-29T09:27:39;20.30;;;3.67;;
19599;SDS011;9947;57.722;12.012;2023-01-29T09:30:06;22.13;;;3.77;;
19599;SDS011;9947;57.722;12.012;2023-01-29T09:32:39;20.10;;;3.87;;
19599;SDS011;9947;57.722;12.012;2023-01-29T09:35:07;21.50;;;3.63;;
19599;SDS011;9947;57.722;12.012;2023-01-29T09:37:40;14.47;;;3.40;;
19599;SDS011;9947;57.722;12.012;2023-01-29T09:40:17;17.97;;;3.60;;
19599;SDS011;9947;57.722;12.012;2023-01-29T09:42:53;26.23;;;3.70;;
19599;SDS011;9947;57.722;12.012;2023-01-29T09:45:29;19.07;;;2.73;;
19599;SDS011;9947;57.722;12.012;2023-01-29T09:47:57;18.13;;;3.40;;
19599;SDS011;9947;57.722;12.012;2023-01-29T09:50:34;20.77;;;3.43;;
19599;SDS011;9947;57.722;12.012;2023-01-29T09:53:13;18.50;;;3.60;;
19599;SDS011;9947;57.722;12.012;2023-01-29T09:55:51;20.43;;;4.43;;
19599;SDS011;9947;57.722;12.012;2023-01-29T09:58:40;13.50;;;3.23;;
19599;SDS011;9947;57.722;12.012;2023-01-29T10:01:17;18.13;;;3.50;;
19599;SDS011;9947;57.722;12.012;2023-01-29T10:04:15;25.03;;;4.17;;
19599;SDS011;9947;57.722;12.012;2023-01-29T10:07:11;25.40;;;4.07;;
19599;SDS011;9947;57.722;12.012;2023-01-29T10:10:17;22.83;;;4.33;;
19599;SDS011;9947;57.722;12.012;2023-01-29T10:13:03;9.93;;;3.10;;
19599;SDS011;9947;57.722;12.012;2023-01-29T10:15:52;14.10;;;3.00;;
19599;SDS011;9947;57.722;12.012;2023-01-29T10:18:46;19.17;;;3.83;;
19599;SDS011;9947;57.722;12.012;2023-01-29T10:21:46;24.13;;;4.17;;
19599;SDS011;9947;57.722;12.012;2023-01-29T10:24:54;21.27;;;3.27;;
19599;SDS011;9947;57.722;12.012;2023-01-29T10:27:30;24.30;;;3.80;;
19599;SDS011;9947;57.722;12.012;2023-01-29T10:30:06;21.23;;;4.13;;
19599;SDS011;9947;57.722;12.012;2023-01-29T10:32:42;13.70;;;3.07;;
19599;SDS011;9947;57.722;12.012;2023-01-29T10:35:21;22.23;;;3.50;;
19599;SDS011;9947;57.722;12.012;2023-01-29T10:38:01;21.67;;;3.90;;
19599;SDS011;9947;57.722;12.012;2023-01-29T10:40:49;16.70;;;3.03;;
19599;SDS011;9947;57.722;12.012;2023-01-29T10:43:32;22.00;;;3.90;;
19599;SDS011;9947;57.722;12.012;2023-01-29T10:46:09;18.13;;;3.90;;
19599;SDS011;9947;57.722;12.012;2023-01-29T10:48:57;17.33;;;3.47;;
19599;SDS011;9947;57.722;12.012;2023-01-29T10:52:07;18.80;;;3.77;;
19599;SDS011;9947;57.722;12.012;2023-01-29T10:54:53;9.87;;;3.60;;
19599;SDS011;9947;57.722;12.012;2023-01-29T10:57:41;15.93;;;3.27;;
19599;SDS011;9947;57.722;12.012;2023-01-29T11:00:42;15.80;;;3.23;;
19599;SDS011;9947;57.722;12.012;2023-01-29T11:03:42;21.07;;;4.03;;
19599;SDS011;9947;57.722;12.012;2023-01-29T11:06:31;16.23;;;3.27;;
19599;SDS011;9947;57.722;12.012;2023-01-29T11:09:04;21.90;;;3.60;;
19599;SDS011;9947;57.722;12.012;2023-01-29T11:11:53;22.17;;;3.17;;
19599;SDS011;9947;57.722;12.012;2023-01-29T11:14:25;19.40;;;3.20;;
19599;SDS011;9947;57.722;12.012;2023-01-29T11:17:13;16.03;;;4.03;;
19599;SDS011;9947;57.722;12.012;2023-01-29T11:19:45;14.53;;;3.37;;
19599;SDS011;9947;57.722;12.012;2023-01-29T11:22:26;14.93;;;3.27;;
19599;SDS011;9947;57.722;12.012;2023-01-29T11:25:14;18.33;;;3.33;;
19599;SDS011;9947;57.722;12.012;2023-01-29T11:27:49;17.90;;;3.27;;
19599;SDS011;9947;57.722;12.012;2023-01-29T11:30:32;18.63;;;3.10;;
19599;SDS011;9947;57.722;12.012;2023-01-29T11:33:07;18.77;;;3.40;;
19599;SDS011;9947;57.722;12.012;2023-01-29T11:35:54;16.30;;;4.00;;
19599;SDS011;9947;57.722;12.012;2023-01-29T11:38:27;15.00;;;2.93;;
19599;SDS011;9947;57.722;12.012;2023-01-29T11:41:17;13.63;;;3.17;;
19599;SDS011;9947;57.722;12.012;2023-01-29T11:43:46;23.07;;;3.60;;
19599;SDS011;9947;57.722;12.012;2023-01-29T11:46:26;18.97;;;4.87;;
19599;SDS011;9947;57.722;12.012;2023-01-29T11:48:54;21.93;;;3.60;;
19599;SDS011;9947;57.722;12.012;2023-01-29T11:51:33;12.20;;;3.70;;
19599;SDS011;9947;57.722;12.012;2023-01-29T11:54:15;14.47;;;3.13;;
19599;SDS011;9947;57.722;12.012;2023-01-29T11:57:21;25.80;;;3.90;;
19599;SDS011;9947;57.722;12.012;2023-01-29T12:00:12;13.40;;;3.60;;
19599;SDS011;9947;57.722;12.012;2023-01-29T12:03:05;15.57;;;3.10;;
19599;SDS011;9947;57.722;12.012;2023-01-29T12:05:39;19.00;;;3.93;;
19599;SDS011;9947;57.722;12.012;2023-01-29T12:08:20;14.97;;;3.50;;
19599;SDS011;9947;57.722;12.012;2023-01-29T12:11:07;14.80;;;2.80;;
19599;SDS011;9947;57.722;12.012;2023-01-29T12:13:43;11.27;;;3.57;;
19599;SDS011;9947;57.722;12.012;2023-01-29T12:16:34;12.60;;;2.97;;
19599;SDS011;9947;57.722;12.012;2023-01-29T12:19:28;17.67;;;3.37;;
19599;SDS011;9947;57.722;12.012;2023-01-29T12:22:10;11.50;;;2.87;;
19599;SDS011;9947;57.722;12.012;2023-01-29T12:24:48;12.70;;;3.00;;
19599;SDS011;9947;57.722;12.012;2023-01-29T12:27:28;16.13;;;3.80;;
19599;SDS011;9947;57.722;12.012;2023-01-29T12:30:11;16.07;;;3.33;;
19599;SDS011;9947;57.722;12.012;2023-01-29T12:32:52;16.03;;;3.10;;
19599;SDS011;9947;57.722;12.012;2023-01-29T12:35:32;16.33;;;3.70;;
19599;SDS011;9947;57.722;12.012;2023-01-29T12:38:06;19.37;;;3.27;;
19599;SDS011;9947;57.722;12.012;2023-01-29T12:40:48;16.97;;;3.30;;
19599;SDS011;9947;57.722;12.012;2023-01-29T12:43:28;18.03;;;3.17;;
19599;SDS011;9947;57.722;12.012;2023-01-29T12:46:00;15.87;;;2.83;;
19599;SDS011;9947;57.722;12.012;2023-01-29T12:48:39;16.27;;;3.57;;
19599;SDS011;9947;57.722;12.012;2023-01-29T12:51:16;9.13;;;2.57;;
19599;SDS011;9947;57.722;12.012;2023-01-29T12:53:53;12.33;;;3.07;;
19599;SDS011;9947;57.722;12.012;2023-01-29T12:56:31;9.03;;;3.23;;
19599;SDS011;9947;57.722;12.012;2023-01-29T12:59:14;11.97;;;2.90;;
19599;SDS011;9947;57.722;12.012;2023-01-29T13:01:46;12.83;;;3.13;;
19599;SDS011;9947;57.722;12.012;2023-01-29T13:04:33;10.60;;;3.20;;
19599;SDS011;9947;57.722;12.012;2023-01-29T13:07:12;13.57;;;3.13;;
19599;SDS011;9947;57.722;12.012;2023-01-29T13:09:49;13.20;;;2.70;;
19599;SDS011;9947;57.722;12.012;2023-01-29T13:12:20;17.80;;;3.77;;
19599;SDS011;9947;57.722;12.012;2023-01-29T13:14:56;13.07;;;3.13;;
19599;SDS011;9947;57.722;12.012;2023-01-29T13:17:35;9.93;;;3.10;;
19599;SDS011;9947;57.722;12.012;2023-01-29T13:20:15;13.73;;;3.17;;
19599;SDS011;9947;57.722;12.012;2023-01-29T13:22:46;14.13;;;3.33;;
19599;SDS011;9947;57.722;12.012;2023-01-29T13:25:22;14.53;;;3.63;;
19599;SDS011;9947;57.722;12.012;2023-01-29T13:27:49;11.80;;;2.93;;
19599;SDS011;9947;57.722;12.012;2023-01-29T13:30:28;14.83;;;3.30;;
19599;SDS011;9947;57.722;12.012;2023-01-29T13:32:57;20.57;;;3.70;;
19599;SDS011;9947;57.722;12.012;2023-01-29T13:35:36;13.87;;;2.83;;
19599;SDS011;9947;57.722;12.012;2023-01-29T13:38:19;12.87;;;3.00;;
19599;SDS011;9947;57.722;12.012;2023-01-29T13:40:59;14.77;;;3.50;;
19599;SDS011;9947;57.722;12.012;2023-01-29T13:43:34;8.10;;;3.00;;
19599;SDS011;9947;57.722;12.012;2023-01-29T13:46:07;11.93;;;2.83;;
19599;SDS011;9947;57.722;12.012;2023-01-29T13:48:45;11.77;;;3.20;;
19599;SDS011;9947;57.722;12.012;2023-01-29T13:51:28;14.90;;;3.50;;
19599;SDS011;9947;57.722;12.012;2023-01-29T13:54:07;9.63;;;3.33;;
19599;SDS011;9947;57.722;12.012;2023-01-29T13:56:43;16.20;;;3.33;;
19599;SDS011;9947;57.722;12.012;2023-01-29T13:59:50;12.87;;;2.67;;
19599;SDS011;9947;57.722;12.012;2023-01-29T14:02:26;15.37;;;3.40;;
19599;SDS011;9947;57.722;12.012;2023-01-29T14:11:27;17.37;;;3.43;;
19599;SDS011;9947;57.722;12.012;2023-01-29T14:17:34;13.03;;;3.10;;
19599;SDS011;9947;57.722;12.012;2023-01-29T14:20:15;13.13;;;3.10;;
19599;SDS011;9947;57.722;12.012;2023-01-29T14:22:52;19.13;;;3.10;;
19599;SDS011;9947;57.722;12.012;2023-01-29T14:25:22;12.50;;;3.40;;
19599;SDS011;9947;57.722;12.012;2023-01-29T14:28:02;18.53;;;3.33;;
19599;SDS011;9947;57.722;12.012;2023-01-29T14:30:51;8.73;;;2.70;;
19599;SDS011;9947;57.722;12.012;2023-01-29T14:33:27;12.83;;;3.83;;
19599;SDS011;9947;57.722;12.012;2023-01-29T14:36:08;18.30;;;3.27;;
19599;SDS011;9947;57.722;12.012;2023-01-29T14:38:38;16.53;;;3.37;;
19599;SDS011;9947;57.722;12.012;2023-01-29T14:41:14;13.13;;;2.80;;
19599;SDS011;9947;57.722;12.012;2023-01-29T14:43:50;10.63;;;3.37;;
19599;SDS011;9947;57.722;12.012;2023-01-29T14:52:31;12.40;;;2.87;;
19599;SDS011;9947;57.722;12.012;2023-01-29T14:55:04;17.23;;;3.40;;
19599;SDS011;9947;57.722;12.012;2023-01-29T14:57:41;20.47;;;4.03;;
19599;SDS011;9947;57.722;12.012;2023-01-29T15:00:16;15.33;;;3.43;;
19599;SDS011;9947;57.722;12.012;2023-01-29T15:02:56;29.23;;;4.03;;
19599;SDS011;9947;57.722;12.012;2023-01-29T15:05:24;16.27;;;3.00;;
19599;SDS011;9947;57.722;12.012;2023-01-29T15:08:03;18.90;;;3.90;;
19599;SDS011;9947;57.722;12.012;2023-01-29T15:10:41;17.40;;;3.57;;
19599;SDS011;9947;57.722;12.012;2023-01-29T15:13:12;19.10;;;3.73;;
19599;SDS011;9947;57.722;12.012;2023-01-29T15:15:51;17.43;;;3.93;;
19599;SDS011;9947;57.722;12.012;2023-01-29T15:18:30;23.93;;;3.40;;
19599;SDS011;9947;57.722;12.012;2023-01-29T15:21:16;19.03;;;3.07;;
19599;SDS011;9947;57.722;12.012;2023-01-29T15:23:46;16.57;;;3.50;;
19599;SDS011;9947;57.722;12.012;2023-01-29T15:26:20;24.03;;;4.73;;
19599;SDS011;9947;57.722;12.012;2023-01-29T15:28:52;13.80;;;3.77;;
19599;SDS011;9947;57.722;12.012;2023-01-29T15:31:28;20.33;;;3.73;;
19599;SDS011;9947;57.722;12.012;2023-01-29T15:34:03;19.57;;;3.50;;
19599;SDS011;9947;57.722;12.012;2023-01-29T15:36:38;21.07;;;4.00;;
19599;SDS011;9947;57.722;12.012;2023-01-29T15:39:12;23.57;;;4.67;;
19599;SDS011;9947;57.722;12.012;2023-01-29T15:41:48;22.87;;;4.07;;
19599;SDS011;9947;57.722;12.012;2023-01-29T15:44:23;12.30;;;3.57;;
19599;SDS011;9947;57.722;12.012;2023-01-29T15:46:51;27.43;;;4.13;;
19599;SDS011;9947;57.722;12.012;2023-01-29T15:49:28;23.53;;;4.00;;
19599;SDS011;9947;57.722;12.012;2023-01-29T15:52:05;23.30;;;4.23;;
19599;SDS011;9947;57.722;12.012;2023-01-29T15:54:42;18.00;;;3.57;;
19599;SDS011;9947;57.722;12.012;2023-01-29T15:57:21;31.87;;;4.33;;
19599;SDS011;9947;57.722;12.012;2023-01-29T15:59:58;18.67;;;4.13;;